sensor_id;sensor_type;location;lat;lon;timestamp;temperature;humidity
46590;DHT22;32313;48.722;9.362;2023-04-24T00:00:02;8.90;99.90
46590;DHT22;32313;48.722;9.362;2023-04-24T00:02:31;8.80;99.90
46590;DHT22;32313;48.722;9.362;2023-04-24T00:04:57;8.90;99.90
46590;DHT22;32313;48.722;9.362;2023-04-24T00:07:22;8.90;99.90
46590;DHT22;32313;48.722;9.362;2023-04-24T00:09:48;8.90;99.90
46590;DHT22;32313;48.722;9.362;2023-04-24T00:12:14;8.80;99.90
46590;DHT22;32313;48.722;9.362;2023-04-24T00:14:39;8.80;99.90
46590;DHT22;32313;48.722;9.362;2023-04-24T00:17:05;8.80;99.90
46590;DHT22;32313;48.722;9.362;2023-04-24T00:19:31;8.80;99.90
46590;DHT22;32313;48.722;9.362;2023-04-24T00:21:57;8.80;99.90
46590;DHT22;32313;48.722;9.362;2023-04-24T00:24:22;8.80;99.90
46590;DHT22;32313;48.722;9.362;2023-04-24T00:26:48;8.80;99.90
46590;DHT22;32313;48.722;9.362;2023-04-24T00:29:14;8.80;99.90
46590;DHT22;32313;48.722;9.362;2023-04-24T00:31:40;8.90;99.90
46590;DHT22;32313;48.722;9.362;2023-04-24T00:34:06;8.90;99.90
46590;DHT22;32313;48.722;9.362;2023-04-24T00:36:31;8.90;99.90
46590;DHT22;32313;48.722;9.362;2023-04-24T00:38:58;9.00;99.90
46590;DHT22;32313;48.722;9.362;2023-04-24T00:41:25;9.00;99.90
46590;DHT22;32313;48.722;9.362;2023-04-24T00:43:52;9.00;99.90
46590;DHT22;32313;48.722;9.362;2023-04-24T00:46:17;8.90;99.90
46590;DHT22;32313;48.722;9.362;2023-04-24T00:48:44;9.00;99.90
46590;DHT22;32313;48.722;9.362;2023-04-24T00:51:10;9.00;99.90
46590;DHT22;32313;48.722;9.362;2023-04-24T00:53:36;9.00;99.90
46590;DHT22;32313;48.722;9.362;2023-04-24T00:56:02;9.10;99.90
46590;DHT22;32313;48.722;9.362;2023-04-24T00:58:28;9.10;99.90
46590;DHT22;32313;48.722;9.362;2023-04-24T01:00:54;9.10;99.90
46590;DHT22;32313;48.722;9.362;2023-04-24T01:03:26;9.10;99.90
46590;DHT22;32313;48.722;9.362;2023-04-24T01:05:55;9.10;99.90
46590;DHT22;32313;48.722;9.362;2023-04-24T01:08:26;9.10;99.90
46590;DHT22;32313;48.722;9.362;2023-04-24T01:10:53;9.00;99.90
46590;DHT22;32313;48.722;9.362;2023-04-24T01:13:20;9.00;99.90
46590;DHT22;32313;48.722;9.362;2023-04-24T01:15:46;9.00;99.90
46590;DHT22;32313;48.722;9.362;2023-04-24T01:18:12;9.00;99.90
46590;DHT22;32313;48.722;9.362;2023-04-24T01:20:42;9.00;99.90
46590;DHT22;32313;48.722;9.362;2023-04-24T01:23:09;9.10;99.90
46590;DHT22;32313;48.722;9.362;2023-04-24T01:25:36;9.10;99.90
46590;DHT22;32313;48.722;9.362;2023-04-24T01:28:03;9.10;99.90
46590;DHT22;32313;48.722;9.362;2023-04-24T01:30:29;9.10;99.90
46590;DHT22;32313;48.722;9.362;2023-04-24T01:32:56;9.10;99.90
46590;DHT22;32313;48.722;9.362;2023-04-24T01:35:22;9.10;99.90
46590;DHT22;32313;48.722;9.362;2023-04-24T01:37:48;9.20;99.90
46590;DHT22;32313;48.722;9.362;2023-04-24T01:40:15;9.20;99.90
46590;DHT22;32313;48.722;9.362;2023-04-24T01:42:41;9.20;99.90
46590;DHT22;32313;48.722;9.362;2023-04-24T01:45:09;9.10;99.90
46590;DHT22;32313;48.722;9.362;2023-04-24T01:47:35;9.10;99.90
46590;DHT22;32313;48.722;9.362;2023-04-24T01:50:02;9.00;99.90
46590;DHT22;32313;48.722;9.362;2023-04-24T01:52:28;9.00;99.90
46590;DHT22;32313;48.722;9.362;2023-04-24T01:54:56;9.00;99.90
46590;DHT22;32313;48.722;9.362;2023-04-24T01:57:24;8.90;99.90
46590;DHT22;32313;48.722;9.362;2023-04-24T01:59:51;8.90;99.90
46590;DHT22;32313;48.722;9.362;2023-04-24T02:02:17;8.90;99.90
46590;DHT22;32313;48.722;9.362;2023-04-24T02:04:43;8.80;99.90
46590;DHT22;32313;48.722;9.362;2023-04-24T02:07:08;8.80;99.90
46590;DHT22;32313;48.722;9.362;2023-04-24T02:09:34;8.80;99.90
46590;DHT22;32313;48.722;9.362;2023-04-24T02:12:00;8.90;99.90
46590;DHT22;32313;48.722;9.362;2023-04-24T02:14:26;8.90;99.90
46590;DHT22;32313;48.722;9.362;2023-04-24T02:16:51;8.90;99.90
46590;DHT22;32313;48.722;9.362;2023-04-24T02:19:18;8.90;99.90
46590;DHT22;32313;48.722;9.362;2023-04-24T02:21:44;8.90;99.90
46590;DHT22;32313;48.722;9.362;2023-04-24T02:24:10;8.90;99.90
46590;DHT22;32313;48.722;9.362;2023-04-24T02:26:36;8.90;99.90
46590;DHT22;32313;48.722;9.362;2023-04-24T02:29:01;9.00;99.90
46590;DHT22;32313;48.722;9.362;2023-04-24T02:31:27;9.00;99.90
46590;DHT22;32313;48.722;9.362;2023-04-24T02:33:53;9.10;99.90
46590;DHT22;32313;48.722;9.362;2023-04-24T02:36:18;9.10;99.90
46590;DHT22;32313;48.722;9.362;2023-04-24T02:38:44;9.10;99.90
46590;DHT22;32313;48.722;9.362;2023-04-24T02:41:11;9.00;99.90
46590;DHT22;32313;48.722;9.362;2023-04-24T02:43:37;8.90;99.90
46590;DHT22;32313;48.722;9.362;2023-04-24T02:46:03;8.80;99.90
46590;DHT22;32313;48.722;9.362;2023-04-24T02:48:28;8.80;99.90
46590;DHT22;32313;48.722;9.362;2023-04-24T02:50:54;8.90;99.90
46590;DHT22;32313;48.722;9.362;2023-04-24T02:53:20;8.90;99.90
46590;DHT22;32313;48.722;9.362;2023-04-24T02:55:45;8.90;99.90
46590;DHT22;32313;48.722;9.362;2023-04-24T02:58:11;9.00;99.90
46590;DHT22;32313;48.722;9.362;2023-04-24T03:00:38;8.90;99.90
46590;DHT22;32313;48.722;9.362;2023-04-24T03:03:05;9.00;99.90
46590;DHT22;32313;48.722;9.362;2023-04-24T03:05:31;9.10;99.90
46590;DHT22;32313;48.722;9.362;2023-04-24T03:07:57;9.10;99.90
46590;DHT22;32313;48.722;9.362;2023-04-24T03:10:22;9.10;99.90
46590;DHT22;32313;48.722;9.362;2023-04-24T03:12:48;9.20;99.90
46590;DHT22;32313;48.722;9.362;2023-04-24T03:15:14;9.20;99.90
46590;DHT22;32313;48.722;9.362;2023-04-24T03:17:40;9.20;99.90
46590;DHT22;32313;48.722;9.362;2023-04-24T03:20:07;9.30;99.90
46590;DHT22;32313;48.722;9.362;2023-04-24T03:22:34;9.30;99.90
46590;DHT22;32313;48.722;9.362;2023-04-24T03:25:03;9.40;99.90
46590;DHT22;32313;48.722;9.362;2023-04-24T03:27:29;9.40;99.90
46590;DHT22;32313;48.722;9.362;2023-04-24T03:30:00;9.40;99.90
46590;DHT22;32313;48.722;9.362;2023-04-24T03:32:46;9.40;99.90
46590;DHT22;32313;48.722;9.362;2023-04-24T03:35:15;9.40;99.90
46590;DHT22;32313;48.722;9.362;2023-04-24T03:37:41;9.30;99.90
46590;DHT22;32313;48.722;9.362;2023-04-24T03:40:27;9.30;99.90
46590;DHT22;32313;48.722;9.362;2023-04-24T03:42:55;9.30;99.90
46590;DHT22;32313;48.722;9.362;2023-04-24T03:45:21;9.30;99.90
46590;DHT22;32313;48.722;9.362;2023-04-24T03:47:49;9.30;99.90
46590;DHT22;32313;48.722;9.362;2023-04-24T03:50:15;9.30;99.90
46590;DHT22;32313;48.722;9.362;2023-04-24T03:52:42;9.20;99.90
46590;DHT22;32313;48.722;9.362;2023-04-24T03:55:09;9.20;99.90
46590;DHT22;32313;48.722;9.362;2023-04-24T03:57:43;9.20;99.90
46590;DHT22;32313;48.722;9.362;2023-04-24T04:00:17;9.20;99.90
46590;DHT22;32313;48.722;9.362;2023-04-24T04:02:48;9.10;99.90
46590;DHT22;32313;48.722;9.362;2023-04-24T04:05:14;9.00;99.90
46590;DHT22;32313;48.722;9.362;2023-04-24T04:07:40;8.90;99.90
46590;DHT22;32313;48.722;9.362;2023-04-24T04:10:07;8.80;99.90
46590;DHT22;32313;48.722;9.362;2023-04-24T04:12:36;8.80;99.90
46590;DHT22;32313;48.722;9.362;2023-04-24T04:15:02;8.60;99.90
46590;DHT22;32313;48.722;9.362;2023-04-24T04:17:28;8.50;99.90
46590;DHT22;32313;48.722;9.362;2023-04-24T04:19:54;8.50;99.90
46590;DHT22;32313;48.722;9.362;2023-04-24T04:22:21;8.50;99.90
46590;DHT22;32313;48.722;9.362;2023-04-24T04:24:49;8.70;99.90
46590;DHT22;32313;48.722;9.362;2023-04-24T04:27:20;8.80;99.90
46590;DHT22;32313;48.722;9.362;2023-04-24T04:30:05;9.00;99.90
46590;DHT22;32313;48.722;9.362;2023-04-24T04:32:37;9.10;99.90
46590;DHT22;32313;48.722;9.362;2023-04-24T04:35:04;9.20;99.90
46590;DHT22;32313;48.722;9.362;2023-04-24T04:37:32;9.30;99.90
46590;DHT22;32313;48.722;9.362;2023-04-24T04:40:09;9.40;99.90
46590;DHT22;32313;48.722;9.362;2023-04-24T04:42:46;9.40;99.90
46590;DHT22;32313;48.722;9.362;2023-04-24T04:45:13;9.40;99.90
46590;DHT22;32313;48.722;9.362;2023-04-24T04:48:01;9.40;99.90
46590;DHT22;32313;48.722;9.362;2023-04-24T04:50:29;9.40;99.90
46590;DHT22;32313;48.722;9.362;2023-04-24T04:53:01;9.40;99.90
46590;DHT22;32313;48.722;9.362;2023-04-24T04:55:31;9.20;99.90
46590;DHT22;32313;48.722;9.362;2023-04-24T04:58:12;8.90;99.90
46590;DHT22;32313;48.722;9.362;2023-04-24T05:00:38;8.70;99.90
46590;DHT22;32313;48.722;9.362;2023-04-24T05:03:27;8.60;99.90
46590;DHT22;32313;48.722;9.362;2023-04-24T05:06:04;8.40;99.90
46590;DHT22;32313;48.722;9.362;2023-04-24T05:08:33;8.20;99.90
46590;DHT22;32313;48.722;9.362;2023-04-24T05:10:59;8.10;99.90
46590;DHT22;32313;48.722;9.362;2023-04-24T05:13:27;8.10;99.90
46590;DHT22;32313;48.722;9.362;2023-04-24T05:15:53;8.00;99.90
46590;DHT22;32313;48.722;9.362;2023-04-24T05:18:19;8.00;99.90
46590;DHT22;32313;48.722;9.362;2023-04-24T05:20:46;7.90;99.90
46590;DHT22;32313;48.722;9.362;2023-04-24T05:23:12;8.00;99.90
46590;DHT22;32313;48.722;9.362;2023-04-24T05:25:40;8.00;99.90
46590;DHT22;32313;48.722;9.362;2023-04-24T05:28:10;8.00;99.90
46590;DHT22;32313;48.722;9.362;2023-04-24T05:30:36;8.00;99.90
46590;DHT22;32313;48.722;9.362;2023-04-24T05:33:02;8.00;99.90
46590;DHT22;32313;48.722;9.362;2023-04-24T05:35:29;8.10;99.90
46590;DHT22;32313;48.722;9.362;2023-04-24T05:37:55;8.00;99.90
46590;DHT22;32313;48.722;9.362;2023-04-24T05:40:21;8.00;99.90
46590;DHT22;32313;48.722;9.362;2023-04-24T05:42:47;8.00;99.90
46590;DHT22;32313;48.722;9.362;2023-04-24T05:45:13;8.00;99.90
46590;DHT22;32313;48.722;9.362;2023-04-24T05:47:42;8.00;99.90
46590;DHT22;32313;48.722;9.362;2023-04-24T05:50:10;7.90;99.90
46590;DHT22;32313;48.722;9.362;2023-04-24T05:52:36;8.00;99.90
46590;DHT22;32313;48.722;9.362;2023-04-24T05:55:10;8.00;99.90
46590;DHT22;32313;48.722;9.362;2023-04-24T05:57:38;8.00;99.90
46590;DHT22;32313;48.722;9.362;2023-04-24T06:00:06;8.10;99.90
46590;DHT22;32313;48.722;9.362;2023-04-24T06:02:49;8.20;99.90
46590;DHT22;32313;48.722;9.362;2023-04-24T06:05:15;8.40;99.90
46590;DHT22;32313;48.722;9.362;2023-04-24T06:07:41;8.50;99.90
46590;DHT22;32313;48.722;9.362;2023-04-24T06:10:08;8.50;99.90
46590;DHT22;32313;48.722;9.362;2023-04-24T06:12:39;8.50;99.90
46590;DHT22;32313;48.722;9.362;2023-04-24T06:15:10;8.60;99.90
46590;DHT22;32313;48.722;9.362;2023-04-24T06:17:56;8.70;99.90
46590;DHT22;32313;48.722;9.362;2023-04-24T06:20:22;8.80;99.90
46590;DHT22;32313;48.722;9.362;2023-04-24T06:22:47;8.80;99.90
46590;DHT22;32313;48.722;9.362;2023-04-24T06:25:13;8.80;99.90
46590;DHT22;32313;48.722;9.362;2023-04-24T06:27:39;8.90;99.90
46590;DHT22;32313;48.722;9.362;2023-04-24T06:30:07;8.90;99.90
46590;DHT22;32313;48.722;9.362;2023-04-24T06:32:33;8.90;99.90
46590;DHT22;32313;48.722;9.362;2023-04-24T06:34:59;9.00;99.90
46590;DHT22;32313;48.722;9.362;2023-04-24T06:37:25;9.20;99.90
46590;DHT22;32313;48.722;9.362;2023-04-24T06:39:51;9.40;99.90
46590;DHT22;32313;48.722;9.362;2023-04-24T06:42:16;9.50;99.90
46590;DHT22;32313;48.722;9.362;2023-04-24T06:44:43;9.70;99.90
46590;DHT22;32313;48.722;9.362;2023-04-24T06:47:10;9.70;99.90
46590;DHT22;32313;48.722;9.362;2023-04-24T06:49:37;9.80;99.90
46590;DHT22;32313;48.722;9.362;2023-04-24T06:52:03;10.50;99.90
46590;DHT22;32313;48.722;9.362;2023-04-24T06:54:29;11.60;99.90
46590;DHT22;32313;48.722;9.362;2023-04-24T06:56:55;11.90;99.90
46590;DHT22;32313;48.722;9.362;2023-04-24T06:59:23;12.50;99.90
46590;DHT22;32313;48.722;9.362;2023-04-24T07:01:49;13.30;99.90
46590;DHT22;32313;48.722;9.362;2023-04-24T07:04:15;13.60;99.90
46590;DHT22;32313;48.722;9.362;2023-04-24T07:06:40;13.50;99.90
46590;DHT22;32313;48.722;9.362;2023-04-24T07:09:06;13.10;99.90
46590;DHT22;32313;48.722;9.362;2023-04-24T07:11:34;13.50;99.90
46590;DHT22;32313;48.722;9.362;2023-04-24T07:14:02;14.00;99.90
46590;DHT22;32313;48.722;9.362;2023-04-24T07:16:28;14.60;99.90
46590;DHT22;32313;48.722;9.362;2023-04-24T07:18:53;14.60;99.90
46590;DHT22;32313;48.722;9.362;2023-04-24T07:21:19;14.20;99.90
46590;DHT22;32313;48.722;9.362;2023-04-24T07:23:45;13.50;99.90
46590;DHT22;32313;48.722;9.362;2023-04-24T07:26:10;13.00;99.90
46590;DHT22;32313;48.722;9.362;2023-04-24T07:28:36;12.90;99.90
46590;DHT22;32313;48.722;9.362;2023-04-24T07:31:02;13.10;99.90
46590;DHT22;32313;48.722;9.362;2023-04-24T07:33:27;12.90;99.90
46590;DHT22;32313;48.722;9.362;2023-04-24T07:35:53;12.50;99.90
46590;DHT22;32313;48.722;9.362;2023-04-24T07:38:19;12.10;99.90
46590;DHT22;32313;48.722;9.362;2023-04-24T07:40:48;11.70;99.90
46590;DHT22;32313;48.722;9.362;2023-04-24T07:43:14;11.30;99.90
46590;DHT22;32313;48.722;9.362;2023-04-24T07:45:40;10.80;99.90
46590;DHT22;32313;48.722;9.362;2023-04-24T07:48:06;10.60;99.90
46590;DHT22;32313;48.722;9.362;2023-04-24T07:50:32;10.50;99.90
46590;DHT22;32313;48.722;9.362;2023-04-24T07:52:58;10.40;99.90
46590;DHT22;32313;48.722;9.362;2023-04-24T07:55:23;10.20;99.90
46590;DHT22;32313;48.722;9.362;2023-04-24T07:57:49;10.20;99.90
46590;DHT22;32313;48.722;9.362;2023-04-24T08:00:15;11.10;99.90
46590;DHT22;32313;48.722;9.362;2023-04-24T08:02:41;12.40;99.90
46590;DHT22;32313;48.722;9.362;2023-04-24T08:05:07;13.20;99.90
46590;DHT22;32313;48.722;9.362;2023-04-24T08:07:33;14.10;99.90
46590;DHT22;32313;48.722;9.362;2023-04-24T08:09:59;14.90;99.90
46590;DHT22;32313;48.722;9.362;2023-04-24T08:12:25;15.50;99.90
46590;DHT22;32313;48.722;9.362;2023-04-24T08:14:50;15.80;99.90
46590;DHT22;32313;48.722;9.362;2023-04-24T08:17:17;16.10;99.90
46590;DHT22;32313;48.722;9.362;2023-04-24T08:19:42;16.00;99.90
46590;DHT22;32313;48.722;9.362;2023-04-24T08:22:13;15.60;99.90
46590;DHT22;32313;48.722;9.362;2023-04-24T08:24:38;16.30;99.90
46590;DHT22;32313;48.722;9.362;2023-04-24T08:27:04;16.30;99.90
46590;DHT22;32313;48.722;9.362;2023-04-24T08:29:30;16.60;99.90
46590;DHT22;32313;48.722;9.362;2023-04-24T08:31:56;16.90;99.90
46590;DHT22;32313;48.722;9.362;2023-04-24T08:34:22;15.90;99.90
46590;DHT22;32313;48.722;9.362;2023-04-24T08:36:47;15.00;99.90
46590;DHT22;32313;48.722;9.362;2023-04-24T08:39:14;14.70;99.90
46590;DHT22;32313;48.722;9.362;2023-04-24T08:41:42;14.50;99.90
46590;DHT22;32313;48.722;9.362;2023-04-24T08:44:12;14.10;99.90
46590;DHT22;32313;48.722;9.362;2023-04-24T08:46:39;13.40;99.90
46590;DHT22;32313;48.722;9.362;2023-04-24T08:49:06;13.10;99.90
46590;DHT22;32313;48.722;9.362;2023-04-24T08:51:31;12.90;99.90
46590;DHT22;32313;48.722;9.362;2023-04-24T08:53:58;13.10;99.90
46590;DHT22;32313;48.722;9.362;2023-04-24T08:56:24;14.00;99.90
46590;DHT22;32313;48.722;9.362;2023-04-24T08:58:51;14.60;99.90
46590;DHT22;32313;48.722;9.362;2023-04-24T09:01:22;15.00;99.90
46590;DHT22;32313;48.722;9.362;2023-04-24T09:03:49;15.60;99.90
46590;DHT22;32313;48.722;9.362;2023-04-24T09:06:17;15.80;99.90
46590;DHT22;32313;48.722;9.362;2023-04-24T09:08:43;15.70;99.90
46590;DHT22;32313;48.722;9.362;2023-04-24T09:11:11;15.30;99.90
46590;DHT22;32313;48.722;9.362;2023-04-24T09:13:37;14.50;99.90
46590;DHT22;32313;48.722;9.362;2023-04-24T09:16:03;14.10;99.90
46590;DHT22;32313;48.722;9.362;2023-04-24T09:18:29;13.50;99.90
46590;DHT22;32313;48.722;9.362;2023-04-24T09:21:03;13.50;99.90
46590;DHT22;32313;48.722;9.362;2023-04-24T09:23:30;13.80;99.90
46590;DHT22;32313;48.722;9.362;2023-04-24T09:25:57;14.00;99.90
46590;DHT22;32313;48.722;9.362;2023-04-24T09:28:30;14.60;99.90
46590;DHT22;32313;48.722;9.362;2023-04-24T09:31:14;14.30;99.90
46590;DHT22;32313;48.722;9.362;2023-04-24T09:34:03;14.10;99.90
46590;DHT22;32313;48.722;9.362;2023-04-24T09:36:35;13.70;99.90
46590;DHT22;32313;48.722;9.362;2023-04-24T09:39:09;13.40;99.90
46590;DHT22;32313;48.722;9.362;2023-04-24T09:44:21;13.00;99.90
46590;DHT22;32313;48.722;9.362;2023-04-24T09:46:57;12.90;99.90
46590;DHT22;32313;48.722;9.362;2023-04-24T09:49:28;13.00;99.90
46590;DHT22;32313;48.722;9.362;2023-04-24T09:52:04;13.30;99.90
46590;DHT22;32313;48.722;9.362;2023-04-24T09:54:30;13.40;99.90
46590;DHT22;32313;48.722;9.362;2023-04-24T09:56:56;13.50;99.90
46590;DHT22;32313;48.722;9.362;2023-04-24T09:59:22;13.60;99.90
46590;DHT22;32313;48.722;9.362;2023-04-24T10:01:48;13.90;99.90
46590;DHT22;32313;48.722;9.362;2023-04-24T10:04:22;15.20;99.90
46590;DHT22;32313;48.722;9.362;2023-04-24T10:06:50;16.50;99.90
46590;DHT22;32313;48.722;9.362;2023-04-24T10:09:18;17.50;99.90
46590;DHT22;32313;48.722;9.362;2023-04-24T10:11:46;18.00;97.70
46590;DHT22;32313;48.722;9.362;2023-04-24T10:14:14;18.70;96.10
46590;DHT22;32313;48.722;9.362;2023-04-24T10:16:41;19.00;93.20
46590;DHT22;32313;48.722;9.362;2023-04-24T10:19:07;17.70;91.40
46590;DHT22;32313;48.722;9.362;2023-04-24T10:21:34;16.40;92.00
46590;DHT22;32313;48.722;9.362;2023-04-24T10:24:01;15.40;92.40
46590;DHT22;32313;48.722;9.362;2023-04-24T10:26:29;14.60;94.10
46590;DHT22;32313;48.722;9.362;2023-04-24T10:28:57;14.00;94.10
46590;DHT22;32313;48.722;9.362;2023-04-24T10:31:24;14.80;94.80
46590;DHT22;32313;48.722;9.362;2023-04-24T10:33:51;15.90;94.80
46590;DHT22;32313;48.722;9.362;2023-04-24T10:36:18;16.10;92.50
46590;DHT22;32313;48.722;9.362;2023-04-24T10:38:45;16.60;92.50
46590;DHT22;32313;48.722;9.362;2023-04-24T10:41:12;17.00;92.60
46590;DHT22;32313;48.722;9.362;2023-04-24T10:44:07;17.60;91.40
46590;DHT22;32313;48.722;9.362;2023-04-24T10:46:34;17.80;88.50
46590;DHT22;32313;48.722;9.362;2023-04-24T10:49:04;18.00;84.80
46590;DHT22;32313;48.722;9.362;2023-04-24T10:54:36;18.10;83.50
46590;DHT22;32313;48.722;9.362;2023-04-24T10:59:49;16.80;86.90
46590;DHT22;32313;48.722;9.362;2023-04-24T11:02:16;16.70;87.00
46590;DHT22;32313;48.722;9.362;2023-04-24T11:04:42;16.20;87.80
46590;DHT22;32313;48.722;9.362;2023-04-24T11:07:12;15.40;88.60
46590;DHT22;32313;48.722;9.362;2023-04-24T11:09:38;14.90;90.00
46590;DHT22;32313;48.722;9.362;2023-04-24T11:12:10;14.50;91.60
46590;DHT22;32313;48.722;9.362;2023-04-24T11:17:37;13.70;92.40
46590;DHT22;32313;48.722;9.362;2023-04-24T11:20:04;13.40;93.20
46590;DHT22;32313;48.722;9.362;2023-04-24T11:22:33;13.20;93.80
46590;DHT22;32313;48.722;9.362;2023-04-24T11:25:03;13.00;93.80
46590;DHT22;32313;48.722;9.362;2023-04-24T11:27:34;12.90;94.50
46590;DHT22;32313;48.722;9.362;2023-04-24T11:30:03;12.70;94.80
46590;DHT22;32313;48.722;9.362;2023-04-24T11:32:35;12.50;95.80
46590;DHT22;32313;48.722;9.362;2023-04-24T11:35:19;12.20;96.20
46590;DHT22;32313;48.722;9.362;2023-04-24T11:37:47;12.20;97.30
46590;DHT22;32313;48.722;9.362;2023-04-24T11:40:15;12.00;97.40
46590;DHT22;32313;48.722;9.362;2023-04-24T11:42:49;12.00;97.50
46590;DHT22;32313;48.722;9.362;2023-04-24T11:45:22;12.00;97.30
46590;DHT22;32313;48.722;9.362;2023-04-24T11:47:48;12.00;97.50
46590;DHT22;32313;48.722;9.362;2023-04-24T11:50:15;12.30;97.20
46590;DHT22;32313;48.722;9.362;2023-04-24T11:52:43;12.50;97.90
46590;DHT22;32313;48.722;9.362;2023-04-24T11:57:53;12.80;97.80
46590;DHT22;32313;48.722;9.362;2023-04-24T12:00:27;12.80;97.30
46590;DHT22;32313;48.722;9.362;2023-04-24T12:03:13;12.60;98.00
46590;DHT22;32313;48.722;9.362;2023-04-24T12:05:39;12.50;98.60
46590;DHT22;32313;48.722;9.362;2023-04-24T12:08:06;12.20;97.80
46590;DHT22;32313;48.722;9.362;2023-04-24T12:10:32;12.00;98.00
46590;DHT22;32313;48.722;9.362;2023-04-24T12:12:59;11.90;98.30
46590;DHT22;32313;48.722;9.362;2023-04-24T12:15:26;11.80;99.10
46590;DHT22;32313;48.722;9.362;2023-04-24T12:17:53;12.00;99.10
46590;DHT22;32313;48.722;9.362;2023-04-24T12:20:30;12.30;98.20
46590;DHT22;32313;48.722;9.362;2023-04-24T12:22:59;12.70;98.60
46590;DHT22;32313;48.722;9.362;2023-04-24T12:25:27;13.10;98.80
46590;DHT22;32313;48.722;9.362;2023-04-24T12:30:32;13.70;97.70
46590;DHT22;32313;48.722;9.362;2023-04-24T12:32:59;13.80;97.10
46590;DHT22;32313;48.722;9.362;2023-04-24T12:35:28;13.50;97.10
46590;DHT22;32313;48.722;9.362;2023-04-24T12:37:54;13.10;97.30
46590;DHT22;32313;48.722;9.362;2023-04-24T12:40:21;12.70;98.30
46590;DHT22;32313;48.722;9.362;2023-04-24T12:42:51;12.30;99.10
46590;DHT22;32313;48.722;9.362;2023-04-24T12:45:18;12.10;99.40
46590;DHT22;32313;48.722;9.362;2023-04-24T12:47:45;12.00;99.90
46590;DHT22;32313;48.722;9.362;2023-04-24T12:50:13;12.10;99.90
46590;DHT22;32313;48.722;9.362;2023-04-24T12:52:39;12.60;99.90
46590;DHT22;32313;48.722;9.362;2023-04-24T12:55:06;13.10;99.10
46590;DHT22;32313;48.722;9.362;2023-04-24T12:57:36;13.00;97.90
46590;DHT22;32313;48.722;9.362;2023-04-24T13:00:03;13.10;98.10
46590;DHT22;32313;48.722;9.362;2023-04-24T13:02:30;13.30;97.90
46590;DHT22;32313;48.722;9.362;2023-04-24T13:04:57;13.60;98.00
46590;DHT22;32313;48.722;9.362;2023-04-24T13:07:24;13.60;97.80
46590;DHT22;32313;48.722;9.362;2023-04-24T13:09:50;13.30;97.90
46590;DHT22;32313;48.722;9.362;2023-04-24T13:12:16;12.90;98.30
46590;DHT22;32313;48.722;9.362;2023-04-24T13:14:42;12.50;98.90
46590;DHT22;32313;48.722;9.362;2023-04-24T13:17:08;12.20;98.90
46590;DHT22;32313;48.722;9.362;2023-04-24T13:19:40;12.00;99.40
46590;DHT22;32313;48.722;9.362;2023-04-24T13:22:09;11.80;99.60
46590;DHT22;32313;48.722;9.362;2023-04-24T13:24:35;11.80;99.80
46590;DHT22;32313;48.722;9.362;2023-04-24T13:27:01;11.80;99.90
46590;DHT22;32313;48.722;9.362;2023-04-24T13:29:28;11.80;99.90
46590;DHT22;32313;48.722;9.362;2023-04-24T13:31:54;11.80;99.90
46590;DHT22;32313;48.722;9.362;2023-04-24T13:34:22;12.10;99.90
46590;DHT22;32313;48.722;9.362;2023-04-24T13:36:52;12.20;99.90
46590;DHT22;32313;48.722;9.362;2023-04-24T13:39:18;12.20;99.90
46590;DHT22;32313;48.722;9.362;2023-04-24T13:41:44;12.20;99.90
46590;DHT22;32313;48.722;9.362;2023-04-24T13:44:10;12.50;99.90
46590;DHT22;32313;48.722;9.362;2023-04-24T13:46:36;13.10;99.90
46590;DHT22;32313;48.722;9.362;2023-04-24T13:49:02;13.50;99.90
46590;DHT22;32313;48.722;9.362;2023-04-24T13:51:29;13.80;99.90
46590;DHT22;32313;48.722;9.362;2023-04-24T13:53:55;13.70;99.90
46590;DHT22;32313;48.722;9.362;2023-04-24T13:56:22;13.50;99.90
46590;DHT22;32313;48.722;9.362;2023-04-24T13:58:48;13.40;99.90
46590;DHT22;32313;48.722;9.362;2023-04-24T14:01:14;13.10;99.90
46590;DHT22;32313;48.722;9.362;2023-04-24T14:03:41;12.80;99.90
46590;DHT22;32313;48.722;9.362;2023-04-24T14:06:08;12.40;99.90
46590;DHT22;32313;48.722;9.362;2023-04-24T14:08:34;12.30;99.90
46590;DHT22;32313;48.722;9.362;2023-04-24T14:11:00;12.20;99.90
46590;DHT22;32313;48.722;9.362;2023-04-24T14:13:26;12.10;99.90
46590;DHT22;32313;48.722;9.362;2023-04-24T14:15:52;11.90;99.90
46590;DHT22;32313;48.722;9.362;2023-04-24T14:18:18;11.80;99.90
46590;DHT22;32313;48.722;9.362;2023-04-24T14:20:44;11.70;99.90
46590;DHT22;32313;48.722;9.362;2023-04-24T14:23:10;11.80;99.90
46590;DHT22;32313;48.722;9.362;2023-04-24T14:25:35;12.00;99.90
46590;DHT22;32313;48.722;9.362;2023-04-24T14:28:01;12.30;99.90
46590;DHT22;32313;48.722;9.362;2023-04-24T14:30:27;12.60;99.90
46590;DHT22;32313;48.722;9.362;2023-04-24T14:32:53;12.80;99.90
46590;DHT22;32313;48.722;9.362;2023-04-24T14:35:18;12.80;99.90
46590;DHT22;32313;48.722;9.362;2023-04-24T14:37:44;12.70;99.90
46590;DHT22;32313;48.722;9.362;2023-04-24T14:40:10;12.60;99.90
46590;DHT22;32313;48.722;9.362;2023-04-24T14:42:36;12.50;99.90
46590;DHT22;32313;48.722;9.362;2023-04-24T14:45:02;12.30;99.90
46590;DHT22;32313;48.722;9.362;2023-04-24T14:47:28;12.20;99.90
46590;DHT22;32313;48.722;9.362;2023-04-24T14:49:54;12.10;99.90
46590;DHT22;32313;48.722;9.362;2023-04-24T14:52:20;11.60;99.90
46590;DHT22;32313;48.722;9.362;2023-04-24T14:54:46;11.20;99.90
46590;DHT22;32313;48.722;9.362;2023-04-24T14:57:12;10.90;99.90
46590;DHT22;32313;48.722;9.362;2023-04-24T14:59:38;10.60;99.90
46590;DHT22;32313;48.722;9.362;2023-04-24T15:02:04;10.60;99.90
46590;DHT22;32313;48.722;9.362;2023-04-24T15:04:29;10.70;99.90
46590;DHT22;32313;48.722;9.362;2023-04-24T15:06:56;10.90;99.90
46590;DHT22;32313;48.722;9.362;2023-04-24T15:09:23;11.20;99.90
46590;DHT22;32313;48.722;9.362;2023-04-24T15:11:50;11.50;99.90
46590;DHT22;32313;48.722;9.362;2023-04-24T15:14:16;11.60;99.90
46590;DHT22;32313;48.722;9.362;2023-04-24T15:16:43;11.70;99.90
46590;DHT22;32313;48.722;9.362;2023-04-24T15:19:09;12.30;99.90
46590;DHT22;32313;48.722;9.362;2023-04-24T15:21:36;13.40;99.90
46590;DHT22;32313;48.722;9.362;2023-04-24T15:24:03;13.70;99.90
46590;DHT22;32313;48.722;9.362;2023-04-24T15:26:29;13.60;99.90
46590;DHT22;32313;48.722;9.362;2023-04-24T15:28:55;13.20;99.90
46590;DHT22;32313;48.722;9.362;2023-04-24T15:31:20;12.90;99.90
46590;DHT22;32313;48.722;9.362;2023-04-24T15:33:51;12.70;99.90
46590;DHT22;32313;48.722;9.362;2023-04-24T15:36:17;12.40;99.90
46590;DHT22;32313;48.722;9.362;2023-04-24T15:38:43;12.20;99.90
46590;DHT22;32313;48.722;9.362;2023-04-24T15:41:09;12.00;99.90
46590;DHT22;32313;48.722;9.362;2023-04-24T15:43:36;11.90;99.90
46590;DHT22;32313;48.722;9.362;2023-04-24T15:46:04;11.70;99.90
46590;DHT22;32313;48.722;9.362;2023-04-24T15:48:30;11.60;99.90
46590;DHT22;32313;48.722;9.362;2023-04-24T15:50:56;11.60;99.90
46590;DHT22;32313;48.722;9.362;2023-04-24T15:53:22;11.60;99.90
46590;DHT22;32313;48.722;9.362;2023-04-24T15:55:48;11.70;99.90